ADDS METAR Data INFO
IDs: Format: Raw Decoded Include TAF

Data at: 1502 UTC 11 Dec 2017

KHBG 111453Z AUTO VRB04KT 10SM CLR 09/03 A3027 RMK AO2 SLP251 T00940033 58002 $
KHBG 111353Z AUTO 00000KT 10SM CLR 02/01 A3028 RMK AO2 SLP252 T00170006 $
KHBG 111253Z AUTO 00000KT 10SM CLR M01/M01 A3028 RMK AO2 SLP254 T10111011 $
KHBG 111153Z AUTO 00000KT 10SM CLR M01/M02 A3028 RMK AO2 SLP253 T10111017 10000 21011 55004 $
KHBG 111053Z AUTO 00000KT 10SM CLR M01/M01 A3028 RMK AO2 SLP252 T10111011 $
KHBG 110953Z AUTO 00000KT 10SM CLR M01/M01 A3028 RMK AO2 SLP255 T10111011 $
KHBG 110853Z AUTO 00000KT 10SM CLR M01/M01 A3029 RMK AO2 SLP258 T10061011 58009 $
KHBG 110753Z AUTO 00000KT 10SM CLR M01/M01 A3031 RMK AO2 SLP263 T10061006 $
KHBG 110653Z AUTO 00000KT 10SM CLR 00/M01 A3031 RMK AO2 SLP263 T00001006 $
KHBG 110553Z AUTO 00000KT 10SM CLR 00/00 A3032 RMK AO2 SLP267 T00000000 10061 21006 401391028 58003 $
KHBG 110453Z AUTO 00000KT 10SM CLR 00/00 A3034 RMK AO2 SLP274 T00000000 $
KHBG 110353Z AUTO 15003KT 10SM CLR 00/00 A3034 RMK AO2 SLP274 T00000000 $
KHBG 110253Z AUTO 00000KT 10SM CLR 02/01 A3033 RMK AO2 SLP271 T00170011 50006 $
KHBG 110153Z AUTO 00000KT 10SM CLR 03/02 A3033 RMK AO2 SLP272 T00280022 $
KHBG 110053Z AUTO 00000KT 10SM CLR 04/03 A3033 RMK AO2 SLP271 T00390033 $
KHBG 102353Z AUTO 00000KT 10SM CLR 06/04 A3031 RMK AO2 SLP265 T00610039 10139 20061 55002 $
KHBG 102253Z AUTO 00000KT 10SM CLR 10/02 A3031 RMK AO2 SLP263 T01000022 $
KHBG 102153Z AUTO 25005KT 10SM CLR 13/M01 A3031 RMK AO2 SLP265 T01331006 $
KHBG 102053Z AUTO 29006KT 10SM CLR 13/00 A3032 RMK AO2 SLP266 T01330000 56022 $
KHBG 101953Z AUTO VRB03KT 10SM CLR 13/00 A3033 RMK AO2 SLP269 T01280000 $
KHBG 101853Z AUTO 23005KT 10SM CLR 12/M01 A3035 RMK AO2 SLP276 T01171006 $
KHBG 101753Z AUTO 00000KT 10SM CLR 11/01 A3038 RMK AO2 SLP288 T01110006 10111 21028 58010 $
KHBG 101653Z AUTO 11003KT 10SM CLR 09/02 A3040 RMK AO2 SLP296 T00890017 $
KHBG 101553Z AUTO 00000KT 10SM CLR 06/03 A3042 RMK AO2 SLP303 T00560028 $
KHBG 101453Z AUTO 00000KT 10SM CLR 02/01 A3041 RMK AO2 SLP300 T00170011 51016 $
KHBG 101353Z AUTO 00000KT 10SM CLR M02/M02 A3040 RMK AO2 SLP296 T10171017 $
KHBG 101311Z AUTO 00000KT 10SM SCT001 M03/M03 A3039 RMK AO2 T10281028 $
KHBG 101253Z AUTO 00000KT 10SM OVC001 M03/M03 A3039 RMK AO2 SLP291 T10281028 $
KHBG 101153Z AUTO 00000KT 10SM BKN002 M03/M03 A3037 RMK AO2 SLP284 T10281028 11011 21028 53004 $
KHBG 101151Z AUTO 00000KT 10SM BKN002 M03/M03 A3037 RMK AO2 $
KHBG 101142Z AUTO 00000KT 10SM SCT002 M03/M03 A3037 RMK AO2 T10281028 $
KHBG 101053Z AUTO 00000KT 10SM CLR M02/M03 A3035 RMK AO2 SLP278 T10221028 $
KHBG 100953Z AUTO 00000KT 10SM CLR M02/M03 A3035 RMK AO2 SLP279 T10221028 $
KHBG 100853Z AUTO 00000KT 10SM CLR M02/M02 A3035 RMK AO2 SLP277 T10221022 53010 $
KHBG 100753Z AUTO 00000KT 10SM CLR M01/M02 A3033 RMK AO2 SLP272 T10111017 $
KHBG 100653Z AUTO 00000KT 10SM CLR M01/M01 A3033 RMK AO2 SLP269 T10111011 $
KHBG 100553Z AUTO 00000KT 10SM CLR M01/M01 A3032 RMK AO2 SLP267 T10111011 10028 21011 400781039 53017 $
KHBG 100453Z AUTO 00000KT 10SM CLR M01/M01 A3030 RMK AO2 SLP260 T10061011 $
KHBG 100353Z AUTO 00000KT 10SM CLR M01/M01 A3028 RMK AO2 SLP254 T10061006 $